Townsend, Delaware
Current Conditions -  °F | °C
As of 10:51 AM on Saturday 25 Oct 2014 (Local Time) from KILG Reporting Station
Clear Clear  
Wind Chill: 62°   Ceiling: Unl
Heat Index: 62°   Visibility: 10mi
Dew Point: 42°   Wind: 9mph
Humidity: 48%   Direction: 260°W
Pressure: 29.92"   Gusts: NA
Location:  39.4°N, 75.69°W
Report Text: KILG 251451Z 26008KT 10SM CLR 17/06 A2992 RMK AO2 SLP131 T01670056 58006
Loading
Personal Weather Stations






























Interactive Weather Map
Tropical Storm Tracking
New forecast layout! Learn more

10-Day Weather Forecast

Advertisements
Track Severe Weather on mobile